Latest Weather Observations for Bushy Park

IDT60801

Issued at 3:31 pm EST Saturday 23 May 2015 (issued every 30 minutes, with the page automatically refreshed every 10 minutes)

About weather observations | Map of weather stations | Latest weather observations for TAS | Other Formats
Station Details ID: 095003 Name: BUSHY PARK (BUSHY PARK ESTATES) Lat: -42.71 Lon: 146.90 Height: 27.0 m
Data from the previous 72 hours. | See also: Recent months at Bushy Park
Date/Time
EST
Temp
°C
App
Temp
°C
Dew
Point
Rel
Hum
%
Delta-T
°C
Wind Press
QNH
hPa
Press
MSL
hPa
Rain
since 9 am
mm
Dir
 
Spd
km/h
Gust
km/h
Spd
kts
Gust
kts
23/03:30pm 12.1 9.0 3.7 56 3.8 N 9 13 5 7 - - 0.0
23/03:00pm 13.1 9.6 3.6 52 4.3 NNW 11 19 6 10 - - 0.0
23/02:30pm 13.3 9.5 3.9 53 4.3 WNW 13 22 7 12 - - 0.0
23/02:00pm 13.2 9.0 3.8 53 4.2 WNW 15 26 8 14 - - 0.0
23/01:30pm 13.0 8.8 3.8 53 4.1 WNW 15 26 8 14 - - 0.0
23/01:00pm 12.7 9.0 4.5 57 3.7 WNW 13 24 7 13 - - 0.0
23/12:30pm 14.2 11.2 4.0 50 4.7 W 9 15 5 8 - - 0.0
23/12:00pm 13.0 8.4 3.5 52 4.3 NW 17 30 9 16 - - 0.0
23/11:30am 12.5 7.5 3.4 54 4.0 NW 19 33 10 18 - - 0.0
23/11:00am 12.2 7.6 3.5 55 3.9 NW 17 26 9 14 - - 0.0
23/10:30am 12.1 7.1 3.7 56 3.8 NNW 19 28 10 15 - - 0.0
23/10:00am 10.8 8.7 4.1 63 3.0 N 4 22 2 12 - - 0.0
23/09:30am 10.4 5.8 3.6 63 3.0 WNW 17 30 9 16 - - 0.0
23/09:00am 10.4 6.8 3.1 60 3.2 NNW 11 17 6 9 - - 0.0
23/08:30am 8.8 4.9 3.3 68 2.4 WNW 13 19 7 10 - - 0.0
23/08:00am 6.8 3.6 3.3 78 1.5 SW 9 11 5 6 - - 0.0
23/07:30am 5.3 2.4 2.6 83 1.1 SW 7 11 4 6 - - 0.0
23/07:00am 5.0 2.1 2.6 84 1.0 S 7 13 4 7 - - 0.0
23/06:30am 4.5 1.6 2.5 87 0.8 S 7 13 4 7 - - 0.0
23/06:00am 4.3 1.3 2.1 86 0.9 E 7 11 4 6 - - 0.0
23/05:30am 4.0 1.0 2.3 89 0.7 ESE 7 13 4 7 - - 0.0
23/05:00am 4.1 0.7 2.1 87 0.8 E 9 15 5 8 - - 0.0
23/04:30am 3.4 0.0 1.9 90 0.6 E 9 13 5 7 - - 0.0
23/04:00am 3.5 1.5 2.3 92 0.5 E 2 9 1 5 - - 0.0
23/03:30am 3.7 1.7 2.5 92 0.5 ESE 2 11 1 6 - - 0.0
23/03:00am 4.8 1.6 3.1 89 0.7 S 9 11 5 6 - - 0.0
23/02:30am 3.9 1.0 2.7 92 0.5 ESE 7 11 4 6 - - 0.0
23/02:00am 4.0 1.2 3.0 93 0.4 SE 7 11 4 6 - - 0.0
23/01:30am 3.9 1.2 2.9 93 0.4 NE 6 9 3 5 - - 0.0
23/01:00am 4.3 1.1 3.1 92 0.5 S 9 11 5 6 - - 0.0
23/12:30am 4.4 1.6 3.2 92 0.5 ESE 7 13 4 7 - - 0.0
23/12:00am 4.2 1.4 3.0 92 0.5 N 7 11 4 6 - - 0.0
 
Date/Time
EST
Temp
°C
App
Temp
°C
Dew
Point
Rel
Hum
%
Delta-T
°C
Wind Press
QNH
hPa
Press
MSL
hPa
Rain
since 9 am
mm
Dir
 
Spd
km/h
Gust
km/h
Spd
kts
Gust
kts
22/11:30pm 5.1 1.6 3.4 89 0.7 ENE 11 13 6 7 - - 0.0
22/11:00pm 4.9 1.4 3.5 91 0.6 ENE 11 15 6 8 - - 0.0
22/10:30pm 4.4 1.8 3.2 92 0.5 ENE 6 7 3 4 - - 0.0
22/10:00pm 5.2 2.7 3.5 89 0.7 E 6 11 3 6 - - 0.0
22/09:30pm 5.5 2.8 3.6 87 0.8 NNE 7 9 4 5 - - 0.0
22/09:00pm 6.2 3.7 3.9 85 1.0 E 6 13 3 7 - - 0.0
22/08:30pm 6.2 3.5 3.9 85 1.0 SSE 7 13 4 7 - - 0.0
22/08:00pm 5.9 2.8 3.8 86 0.9 NE 9 13 5 7 - - 0.0
22/07:30pm 5.6 2.9 3.7 87 0.8 SE 7 9 4 5 - - 0.0
22/07:00pm 6.4 4.3 4.1 85 1.0 ESE 4 7 2 4 - - 0.0
22/06:30pm 6.5 2.7 3.9 83 1.1 N 13 22 7 12 - - 0.0
22/06:00pm 7.5 4.9 4.3 80 1.4 NW 7 11 4 6 - - 0.0
22/05:30pm 9.8 7.3 3.7 66 2.7 WSW 6 11 3 6 - - 0.0
22/05:00pm 9.6 6.6 4.0 68 2.5 WNW 9 13 5 7 - - 0.0
22/04:30pm 10.8 7.3 3.3 60 3.3 NW 11 17 6 9 - - 0.0
22/04:00pm 11.5 7.1 2.9 55 3.8 NNW 15 20 8 11 - - 0.0
22/03:30pm 12.0 7.6 2.7 53 4.1 WNW 15 28 8 15 - - 0.0
22/03:00pm 12.2 8.3 3.2 54 4.0 WNW 13 20 7 11 - - 0.0
22/02:30pm 13.0 9.2 3.8 53 4.1 WNW 13 20 7 11 - - 0.0
22/02:00pm 13.4 9.5 3.5 51 4.4 NW 13 26 7 14 - - 0.0
22/01:30pm 13.4 9.6 3.8 52 4.3 NW 13 24 7 13 - - 0.0
22/01:00pm 12.9 8.6 3.4 52 4.2 NW 15 24 8 13 - - 0.0
22/12:30pm 12.9 7.9 3.4 52 4.2 NW 19 28 10 15 - - 0.0
22/12:00pm 12.2 7.9 3.5 55 3.9 WNW 15 30 8 16 - - 0.0
22/11:30am 12.3 8.7 3.1 53 4.1 WNW 11 22 6 12 - - 0.0
22/11:00am 11.8 8.5 2.4 52 4.1 W 9 17 5 9 - - 0.0
22/10:30am 12.2 9.0 3.0 53 4.0 N 9 15 5 8 - - 0.0
22/10:00am 11.3 8.4 2.6 55 3.8 NW 7 13 4 7 - - 0.0
22/09:30am 10.6 7.4 3.1 60 3.3 WNW 9 13 5 7 - - 0.0
22/09:00am 8.6 6.4 5.3 80 1.5 N 6 7 3 4 - - 0.0
22/08:30am 7.0 4.3 3.8 80 1.4 SSE 7 9 4 5 - - 0.0
22/08:00am 7.0 3.9 3.5 78 1.5 NNW 9 15 5 8 - - 0.0
22/07:30am 6.9 5.5 3.4 78 1.5 CALM 0 0 0 0 - - 0.0
22/07:00am 6.9 4.7 3.1 77 1.6 SSE 4 9 2 5 - - 0.0
22/06:30am 6.8 4.2 3.3 78 1.5 SW 6 9 3 5 - - 0.0
22/06:00am 6.6 4.0 3.0 78 1.5 NNE 6 11 3 6 - - 0.0
22/05:30am 6.2 4.1 3.9 85 1.0 ENE 4 9 2 5 - - 0.0
22/05:00am 6.1 3.6 3.8 85 1.0 SE 6 9 3 5 - - 0.0
22/04:30am 5.9 3.4 3.5 84 1.0 N 6 9 3 5 - - 0.0
22/04:00am 5.5 3.0 3.6 87 0.8 NNW 6 7 3 4 - - 0.0
22/03:30am 5.9 3.5 4.3 89 0.7 N 6 7 3 4 - - 0.0
22/03:00am 6.4 3.7 3.8 83 1.1 W 7 11 4 6 - - 0.0
22/02:30am 7.0 5.4 4.3 83 1.2 NNW 2 9 1 5 - - 0.0
22/02:00am 7.5 6.3 4.8 83 1.2 CALM 0 0 0 0 - - 0.0
22/01:30am 7.6 5.7 4.7 82 1.3 WNW 4 9 2 5 - - 0.0
22/01:00am 8.1 5.6 4.0 75 1.8 WSW 6 9 3 5 - - 0.0
22/12:30am 8.6 5.4 2.8 67 2.5 WSW 9 13 5 7 - - 0.0
22/12:00am 8.6 5.1 3.3 69 2.3 SW 11 15 6 8 - - 0.0
 
Date/Time
EST
Temp
°C
App
Temp
°C
Dew
Point
Rel
Hum
%
Delta-T
°C
Wind Press
QNH
hPa
Press
MSL
hPa
Rain
since 9 am
mm
Dir
 
Spd
km/h
Gust
km/h
Spd
kts
Gust
kts
21/11:30pm 8.6 4.7 3.3 69 2.3 SW 13 17 7 9 - - 0.0
21/11:00pm 8.3 4.7 2.9 69 2.3 SW 11 13 6 7 - - 0.0
21/10:30pm 8.7 5.7 2.3 64 2.7 WSW 7 9 4 5 - - 0.0
21/10:00pm 9.0 5.6 2.1 62 2.9 SW 9 11 5 6 - - 0.0
21/09:30pm 8.8 4.9 3.5 69 2.3 SSW 13 17 7 9 - - 0.0
21/09:00pm 8.8 5.7 3.5 69 2.3 WSW 9 13 5 7 - - 0.0
21/08:30pm 8.3 5.5 5.0 80 1.5 SSW 9 13 5 7 - - 0.0
21/08:00pm 8.5 5.3 5.2 80 1.5 SW 11 15 6 8 - - 0.0
21/07:30pm 8.7 6.4 4.9 77 1.7 W 6 11 3 6 - - 0.0
21/07:00pm 8.8 6.3 5.0 77 1.7 WSW 7 13 4 7 - - 0.0
21/06:30pm 9.2 6.7 4.8 74 2.0 NE 7 9 4 5 - - 0.0
21/06:00pm 9.5 7.5 4.6 71 2.2 SSE 4 7 2 4 - - 0.0
21/05:30pm 10.0 6.5 3.7 65 2.8 SSW 11 17 6 9 - - 0.0
21/05:00pm 10.2 5.7 4.2 66 2.7 SSW 17 26 9 14 - - 0.0
21/04:30pm 10.8 6.7 2.5 56 3.6 S 13 15 7 8 - - 0.0
21/04:00pm 10.8 7.2 3.1 59 3.4 S 11 15 6 8 - - 0.0
21/03:30pm 11.1 8.3 3.2 58 3.5 SE 7 9 4 5 - - 0.0
21/03:00pm 11.4 9.6 3.6 58 3.5 SE 2 7 1 4 - - 0.0
21/02:30pm 11.4 7.3 2.2 53 3.9 SSE 13 19 7 10 - - 0.0
21/02:00pm 11.3 9.2 4.0 61 3.3 ENE 4 9 2 5 - - 0.0
21/01:30pm 10.8 8.2 4.4 64 2.9 SE 7 9 4 5 - - 0.0
21/01:00pm 10.7 8.2 4.5 65 2.8 E 7 9 4 5 - - 0.0
21/12:30pm 10.5 7.2 4.8 68 2.6 E 11 19 6 10 - - 0.0
21/12:00pm 10.9 8.1 5.0 67 2.7 NNW 9 11 5 6 - - 0.0
21/11:30am 10.2 7.5 5.4 72 2.2 N 9 13 5 7 - - 0.0
21/11:00am 10.9 7.8 5.5 69 2.5 N 11 15 6 8 - - 0.0
21/10:30am 9.5 6.6 4.6 71 2.2 N 9 13 5 7 - - 0.0
21/10:00am 8.0 6.1 3.1 71 2.1 E 2 9 1 5 - - 0.0
21/09:30am 6.2 4.7 3.1 80 1.3 CALM 0 0 0 0 - - 0.0
21/09:00am 5.2 3.0 3.3 87 0.8 N 4 6 2 3 - - 0.4
21/08:30am 3.9 2.4 2.9 93 0.4 CALM 0 0 0 0 - - 0.4
21/08:00am 3.0 1.4 2.2 94 0.3 CALM 0 7 0 4 - - 0.4
21/07:30am 2.7 0.3 2.2 96 0.2 SE 4 7 2 4 - - 0.4
21/07:00am 2.4 -1.0 1.6 94 0.3 S 9 13 5 7 - - 0.4
21/06:30am 1.8 -1.4 1.0 94 0.3 NNW 7 11 4 6 - - 0.4
21/06:00am 1.4 -1.8 0.9 96 0.2 NW 7 9 4 5 - - 0.4
21/05:30am 1.1 -2.0 0.3 94 0.3 SSE 6 9 3 5 - - 0.4
21/05:00am 1.3 -0.9 0.8 96 0.2 N 2 7 1 4 - - 0.4
21/04:30am 2.4 -0.5 1.4 93 0.4 ENE 6 9 3 5 - - 0.4
21/04:00am 2.5 0.0 1.7 94 0.3 N 4 9 2 5 - - 0.4
21/03:30am 2.8 -0.1 1.5 91 0.5 N 6 9 3 5 - - 0.4
21/03:00am 3.6 1.9 2.1 90 0.6 CALM 0 0 0 0 - - 0.4
21/02:30am 3.0 -0.4 1.7 91 0.5 NNW 9 13 5 7 - - 0.4
21/02:00am 3.5 1.1 2.0 90 0.6 SE 4 7 2 4 - - 0.4
21/01:30am 3.7 0.7 1.9 88 0.7 W 7 9 4 5 - - 0.4
21/01:00am 3.9 2.3 2.2 89 0.7 CALM 0 7 0 4 - - 0.4
21/12:30am 3.5 0.4 1.5 87 0.8 NW 7 9 4 5 - - 0.4
21/12:00am 4.1 1.0 1.6 84 1.0 N 7 9 4 5 - - 0.4
 
Date/Time
EST
Temp
°C
App
Temp
°C
Dew
Point
Rel
Hum
%
Delta-T
°C
Wind Press
QNH
hPa
Press
MSL
hPa
Rain
since 9 am
mm
Dir
 
Spd
km/h
Gust
km/h
Spd
kts
Gust
kts
20/11:30pm 5.0 1.2 2.0 81 1.2 W 11 13 6 7 - - 0.4
20/11:00pm 6.3 2.1 1.6 72 1.9 NNW 13 19 7 10 - - 0.4
20/10:30pm 7.0 2.8 1.6 68 2.2 W 13 22 7 12 - - 0.4
20/10:00pm 8.0 1.4 2.0 66 2.5 SW 26 39 14 21 - - 0.4
20/09:30pm 7.7 1.9 2.5 69 2.2 SW 22 37 12 20 - - 0.4
20/09:00pm 8.3 3.0 2.9 69 2.3 SW 20 28 11 15 - - 0.4
20/08:30pm 8.4 2.5 3.8 73 2.0 SW 24 41 13 22 - - 0.4
20/08:00pm 8.5 5.3 5.2 80 1.5 SW 11 19 6 10 - - 0.4
20/07:30pm 8.8 7.0 7.3 90 0.7 SE 6 15 3 8 - - 0.4
20/07:00pm 9.2 7.5 8.4 95 0.4 N 7 7 4 4 - - 0.4
20/06:30pm 9.3 7.3 8.5 95 0.4 S 9 11 5 6 - - 0.2
20/06:00pm 9.6 9.1 8.0 90 0.8 CALM 0 0 0 0 - - 0.2
20/05:30pm 10.0 8.5 8.4 90 0.8 WSW 6 7 3 4 - - 0.2
20/05:00pm 10.1 8.8 7.6 84 1.2 SE 4 9 2 5 - - 0.2
20/04:30pm 10.3 9.4 7.6 83 1.3 E 2 6 1 3 - - 0.2
20/04:00pm 10.5 9.5 7.4 81 1.5 ESE 2 6 1 3 - - 0.2

Other Formats:

Comma delimited format used in spreadsheet applications
http://www.bom.gov.au/fwo/IDT60801/IDT60801.94964.axf

JavaScript Object Notation format (JSON) in row-major order
http://www.bom.gov.au/fwo/IDT60801/IDT60801.94964.json